sensor_id;sensor_type;location;lat;lon;timestamp;P1;durP1;ratioP1;P2;durP2;ratioP2
54853;SDS011;40747;49.480;8.658;2023-08-30T00:00:10;1.50;;;1.40;;
54853;SDS011;40747;49.480;8.658;2023-08-30T00:02:36;1.55;;;1.23;;
54853;SDS011;40747;49.480;8.658;2023-08-30T00:05:04;7.10;;;1.90;;
54853;SDS011;40747;49.480;8.658;2023-08-30T00:07:30;3.95;;;1.77;;
54853;SDS011;40747;49.480;8.658;2023-08-30T00:09:58;2.45;;;1.95;;
54853;SDS011;40747;49.480;8.658;2023-08-30T00:12:24;3.13;;;1.67;;
54853;SDS011;40747;49.480;8.658;2023-08-30T00:14:50;5.95;;;2.30;;
54853;SDS011;40747;49.480;8.658;2023-08-30T00:17:16;3.20;;;1.50;;
54853;SDS011;40747;49.480;8.658;2023-08-30T00:19:41;1.77;;;1.38;;
54853;SDS011;40747;49.480;8.658;2023-08-30T00:22:06;5.72;;;1.67;;
54853;SDS011;40747;49.480;8.658;2023-08-30T00:24:34;1.77;;;1.35;;
54853;SDS011;40747;49.480;8.658;2023-08-30T00:27:00;2.35;;;1.90;;
54853;SDS011;40747;49.480;8.658;2023-08-30T00:29:27;1.90;;;1.63;;
54853;SDS011;40747;49.480;8.658;2023-08-30T00:31:53;2.53;;;1.42;;
54853;SDS011;40747;49.480;8.658;2023-08-30T00:34:18;2.25;;;1.50;;
54853;SDS011;40747;49.480;8.658;2023-08-30T00:36:43;1.75;;;1.40;;
54853;SDS011;40747;49.480;8.658;2023-08-30T00:39:09;1.48;;;1.23;;
54853;SDS011;40747;49.480;8.658;2023-08-30T00:41:34;1.73;;;1.42;;
54853;SDS011;40747;49.480;8.658;2023-08-30T00:44:00;1.80;;;1.55;;
54853;SDS011;40747;49.480;8.658;2023-08-30T00:46:25;2.05;;;1.58;;
54853;SDS011;40747;49.480;8.658;2023-08-30T00:48:51;2.25;;;1.80;;
54853;SDS011;40747;49.480;8.658;2023-08-30T00:51:17;2.63;;;1.90;;
54853;SDS011;40747;49.480;8.658;2023-08-30T00:53:42;2.45;;;1.83;;
54853;SDS011;40747;49.480;8.658;2023-08-30T00:56:09;1.63;;;1.30;;
54853;SDS011;40747;49.480;8.658;2023-08-30T00:58:34;2.45;;;1.77;;
54853;SDS011;40747;49.480;8.658;2023-08-30T01:01:00;3.90;;;1.98;;
54853;SDS011;40747;49.480;8.658;2023-08-30T01:03:25;2.65;;;1.77;;
54853;SDS011;40747;49.480;8.658;2023-08-30T01:05:51;2.97;;;1.85;;
54853;SDS011;40747;49.480;8.658;2023-08-30T01:08:16;9.95;;;2.25;;
54853;SDS011;40747;49.480;8.658;2023-08-30T01:10:44;1.50;;;1.27;;
54853;SDS011;40747;49.480;8.658;2023-08-30T01:13:18;4.00;;;2.10;;
54853;SDS011;40747;49.480;8.658;2023-08-30T01:15:48;2.00;;;1.67;;
54853;SDS011;40747;49.480;8.658;2023-08-30T01:18:17;2.47;;;1.80;;
54853;SDS011;40747;49.480;8.658;2023-08-30T01:20:44;2.22;;;1.92;;
54853;SDS011;40747;49.480;8.658;2023-08-30T01:23:34;5.18;;;2.20;;
54853;SDS011;40747;49.480;8.658;2023-08-30T01:28:39;3.30;;;2.03;;
54853;SDS011;40747;49.480;8.658;2023-08-30T01:31:06;5.20;;;1.75;;
54853;SDS011;40747;49.480;8.658;2023-08-30T01:33:32;2.28;;;1.92;;
54853;SDS011;40747;49.480;8.658;2023-08-30T01:35:59;2.30;;;1.65;;
54853;SDS011;40747;49.480;8.658;2023-08-30T01:38:26;4.28;;;1.95;;
54853;SDS011;40747;49.480;8.658;2023-08-30T01:40:53;3.65;;;2.45;;
54853;SDS011;40747;49.480;8.658;2023-08-30T01:43:21;3.83;;;2.53;;
54853;SDS011;40747;49.480;8.658;2023-08-30T01:45:47;4.65;;;2.88;;
54853;SDS011;40747;49.480;8.658;2023-08-30T01:48:13;3.20;;;2.63;;
54853;SDS011;40747;49.480;8.658;2023-08-30T01:50:40;4.85;;;2.85;;
54853;SDS011;40747;49.480;8.658;2023-08-30T01:53:07;4.10;;;2.97;;
54853;SDS011;40747;49.480;8.658;2023-08-30T01:55:34;4.38;;;2.80;;
54853;SDS011;40747;49.480;8.658;2023-08-30T01:58:01;4.35;;;2.70;;
54853;SDS011;40747;49.480;8.658;2023-08-30T02:00:27;5.22;;;2.70;;
54853;SDS011;40747;49.480;8.658;2023-08-30T02:02:52;4.25;;;2.85;;
54853;SDS011;40747;49.480;8.658;2023-08-30T02:05:17;3.10;;;2.40;;
54853;SDS011;40747;49.480;8.658;2023-08-30T02:10:22;3.08;;;2.28;;
54853;SDS011;40747;49.480;8.658;2023-08-30T02:12:53;5.15;;;2.00;;
54853;SDS011;40747;49.480;8.658;2023-08-30T02:15:20;4.00;;;2.25;;
54853;SDS011;40747;49.480;8.658;2023-08-30T02:17:48;2.88;;;2.13;;
54853;SDS011;40747;49.480;8.658;2023-08-30T02:20:15;4.07;;;3.08;;
54853;SDS011;40747;49.480;8.658;2023-08-30T02:22:41;4.65;;;2.88;;
54853;SDS011;40747;49.480;8.658;2023-08-30T02:25:06;3.00;;;2.58;;
54853;SDS011;40747;49.480;8.658;2023-08-30T02:27:32;6.40;;;3.20;;
54853;SDS011;40747;49.480;8.658;2023-08-30T02:29:58;5.05;;;3.85;;
54853;SDS011;40747;49.480;8.658;2023-08-30T02:32:24;5.63;;;3.28;;
54853;SDS011;40747;49.480;8.658;2023-08-30T02:34:50;4.93;;;3.97;;
54853;SDS011;40747;49.480;8.658;2023-08-30T02:37:17;5.53;;;3.97;;
54853;SDS011;40747;49.480;8.658;2023-08-30T02:39:42;10.18;;;4.70;;
54853;SDS011;40747;49.480;8.658;2023-08-30T02:42:07;4.25;;;3.55;;
54853;SDS011;40747;49.480;8.658;2023-08-30T02:44:33;4.43;;;3.10;;
54853;SDS011;40747;49.480;8.658;2023-08-30T02:46:58;5.60;;;3.72;;
54853;SDS011;40747;49.480;8.658;2023-08-30T02:49:23;3.45;;;2.80;;
54853;SDS011;40747;49.480;8.658;2023-08-30T02:51:48;5.78;;;3.40;;
54853;SDS011;40747;49.480;8.658;2023-08-30T02:54:14;5.68;;;4.70;;
54853;SDS011;40747;49.480;8.658;2023-08-30T02:56:40;9.88;;;5.68;;
54853;SDS011;40747;49.480;8.658;2023-08-30T02:59:08;6.45;;;4.40;;
54853;SDS011;40747;49.480;8.658;2023-08-30T03:01:33;5.65;;;4.35;;
54853;SDS011;40747;49.480;8.658;2023-08-30T03:03:58;8.15;;;4.47;;
54853;SDS011;40747;49.480;8.658;2023-08-30T03:06:24;6.68;;;4.38;;
54853;SDS011;40747;49.480;8.658;2023-08-30T03:08:49;6.25;;;4.63;;
54853;SDS011;40747;49.480;8.658;2023-08-30T03:11:15;8.20;;;5.50;;
54853;SDS011;40747;49.480;8.658;2023-08-30T03:13:40;7.10;;;5.53;;
54853;SDS011;40747;49.480;8.658;2023-08-30T03:18:37;5.72;;;4.68;;
54853;SDS011;40747;49.480;8.658;2023-08-30T03:21:03;6.60;;;4.40;;
54853;SDS011;40747;49.480;8.658;2023-08-30T03:23:29;8.30;;;5.68;;
54853;SDS011;40747;49.480;8.658;2023-08-30T03:25:56;8.13;;;5.80;;
54853;SDS011;40747;49.480;8.658;2023-08-30T03:28:22;8.48;;;5.85;;
54853;SDS011;40747;49.480;8.658;2023-08-30T03:30:47;7.20;;;5.70;;
54853;SDS011;40747;49.480;8.658;2023-08-30T03:33:12;12.05;;;5.75;;
54853;SDS011;40747;49.480;8.658;2023-08-30T03:35:38;7.60;;;5.55;;
54853;SDS011;40747;49.480;8.658;2023-08-30T03:38:03;8.40;;;5.45;;
54853;SDS011;40747;49.480;8.658;2023-08-30T03:40:29;7.18;;;5.38;;
54853;SDS011;40747;49.480;8.658;2023-08-30T03:42:55;8.82;;;5.50;;
54853;SDS011;40747;49.480;8.658;2023-08-30T03:45:20;8.93;;;5.78;;
54853;SDS011;40747;49.480;8.658;2023-08-30T03:47:45;7.90;;;5.90;;
54853;SDS011;40747;49.480;8.658;2023-08-30T03:50:10;7.97;;;5.10;;
54853;SDS011;40747;49.480;8.658;2023-08-30T03:52:36;6.63;;;5.15;;
54853;SDS011;40747;49.480;8.658;2023-08-30T03:55:01;10.10;;;5.13;;
54853;SDS011;40747;49.480;8.658;2023-08-30T03:57:27;7.45;;;5.28;;
54853;SDS011;40747;49.480;8.658;2023-08-30T03:59:52;6.55;;;5.25;;
54853;SDS011;40747;49.480;8.658;2023-08-30T04:02:17;6.32;;;4.50;;
54853;SDS011;40747;49.480;8.658;2023-08-30T04:04:43;7.63;;;4.85;;
54853;SDS011;40747;49.480;8.658;2023-08-30T04:07:08;8.63;;;5.40;;
54853;SDS011;40747;49.480;8.658;2023-08-30T04:09:33;6.07;;;4.45;;
54853;SDS011;40747;49.480;8.658;2023-08-30T04:11:59;6.47;;;4.78;;
54853;SDS011;40747;49.480;8.658;2023-08-30T04:14:25;7.88;;;5.22;;
54853;SDS011;40747;49.480;8.658;2023-08-30T04:16:50;7.50;;;5.05;;
54853;SDS011;40747;49.480;8.658;2023-08-30T04:19:16;7.07;;;5.35;;
54853;SDS011;40747;49.480;8.658;2023-08-30T04:21:41;5.95;;;4.72;;
54853;SDS011;40747;49.480;8.658;2023-08-30T04:24:06;6.82;;;5.05;;
54853;SDS011;40747;49.480;8.658;2023-08-30T04:26:32;8.90;;;5.13;;
54853;SDS011;40747;49.480;8.658;2023-08-30T04:28:57;7.28;;;5.03;;
54853;SDS011;40747;49.480;8.658;2023-08-30T04:31:22;6.22;;;4.70;;
54853;SDS011;40747;49.480;8.658;2023-08-30T04:33:47;6.97;;;5.35;;
54853;SDS011;40747;49.480;8.658;2023-08-30T04:36:13;6.70;;;5.15;;
54853;SDS011;40747;49.480;8.658;2023-08-30T04:38:38;8.15;;;5.78;;
54853;SDS011;40747;49.480;8.658;2023-08-30T04:41:03;10.23;;;5.63;;
54853;SDS011;40747;49.480;8.658;2023-08-30T04:43:29;11.00;;;5.60;;
54853;SDS011;40747;49.480;8.658;2023-08-30T04:45:54;6.57;;;4.72;;
54853;SDS011;40747;49.480;8.658;2023-08-30T04:48:19;8.68;;;4.72;;
54853;SDS011;40747;49.480;8.658;2023-08-30T04:50:45;7.63;;;5.28;;
54853;SDS011;40747;49.480;8.658;2023-08-30T04:53:10;8.25;;;5.35;;
54853;SDS011;40747;49.480;8.658;2023-08-30T04:55:35;6.38;;;4.90;;
54853;SDS011;40747;49.480;8.658;2023-08-30T04:58:00;8.10;;;5.55;;
54853;SDS011;40747;49.480;8.658;2023-08-30T05:00:26;7.75;;;4.90;;
54853;SDS011;40747;49.480;8.658;2023-08-30T05:02:51;7.85;;;5.63;;
54853;SDS011;40747;49.480;8.658;2023-08-30T05:05:16;7.28;;;5.82;;
54853;SDS011;40747;49.480;8.658;2023-08-30T05:07:42;7.18;;;4.95;;
54853;SDS011;40747;49.480;8.658;2023-08-30T05:10:07;7.30;;;5.05;;
54853;SDS011;40747;49.480;8.658;2023-08-30T05:12:33;7.55;;;5.38;;
54853;SDS011;40747;49.480;8.658;2023-08-30T05:14:59;7.43;;;4.70;;
54853;SDS011;40747;49.480;8.658;2023-08-30T05:17:25;7.35;;;5.32;;
54853;SDS011;40747;49.480;8.658;2023-08-30T05:19:53;6.68;;;4.78;;
54853;SDS011;40747;49.480;8.658;2023-08-30T05:22:18;8.50;;;5.38;;
54853;SDS011;40747;49.480;8.658;2023-08-30T05:24:43;5.35;;;4.18;;
54853;SDS011;40747;49.480;8.658;2023-08-30T05:27:09;8.73;;;4.68;;
54853;SDS011;40747;49.480;8.658;2023-08-30T05:29:36;7.47;;;4.82;;
54853;SDS011;40747;49.480;8.658;2023-08-30T05:32:02;6.72;;;4.70;;
54853;SDS011;40747;49.480;8.658;2023-08-30T05:34:27;6.75;;;4.82;;
54853;SDS011;40747;49.480;8.658;2023-08-30T05:36:53;5.63;;;4.43;;
54853;SDS011;40747;49.480;8.658;2023-08-30T05:39:18;6.65;;;4.85;;
54853;SDS011;40747;49.480;8.658;2023-08-30T05:41:44;6.45;;;4.93;;
54853;SDS011;40747;49.480;8.658;2023-08-30T05:44:09;5.50;;;4.18;;
54853;SDS011;40747;49.480;8.658;2023-08-30T05:46:34;5.47;;;4.40;;
54853;SDS011;40747;49.480;8.658;2023-08-30T05:49:00;7.18;;;4.72;;
54853;SDS011;40747;49.480;8.658;2023-08-30T05:51:27;5.68;;;4.63;;
54853;SDS011;40747;49.480;8.658;2023-08-30T05:53:52;6.03;;;4.20;;
54853;SDS011;40747;49.480;8.658;2023-08-30T05:56:18;7.75;;;5.25;;
54853;SDS011;40747;49.480;8.658;2023-08-30T05:58:43;6.28;;;4.13;;
54853;SDS011;40747;49.480;8.658;2023-08-30T06:01:08;7.43;;;4.70;;
54853;SDS011;40747;49.480;8.658;2023-08-30T06:03:34;6.70;;;4.90;;
54853;SDS011;40747;49.480;8.658;2023-08-30T06:06:00;8.85;;;3.95;;
54853;SDS011;40747;49.480;8.658;2023-08-30T06:08:26;6.90;;;4.75;;
54853;SDS011;40747;49.480;8.658;2023-08-30T06:10:51;7.32;;;3.95;;
54853;SDS011;40747;49.480;8.658;2023-08-30T06:13:17;5.30;;;4.63;;
54853;SDS011;40747;49.480;8.658;2023-08-30T06:15:42;3.63;;;3.30;;
54853;SDS011;40747;49.480;8.658;2023-08-30T06:18:09;4.65;;;3.58;;
54853;SDS011;40747;49.480;8.658;2023-08-30T06:20:35;5.65;;;3.58;;
54853;SDS011;40747;49.480;8.658;2023-08-30T06:23:02;5.88;;;3.92;;
54853;SDS011;40747;49.480;8.658;2023-08-30T06:25:28;5.10;;;3.88;;
54853;SDS011;40747;49.480;8.658;2023-08-30T06:27:57;3.85;;;3.40;;
54853;SDS011;40747;49.480;8.658;2023-08-30T06:30:24;5.05;;;3.53;;
54853;SDS011;40747;49.480;8.658;2023-08-30T06:32:50;5.65;;;3.65;;
54853;SDS011;40747;49.480;8.658;2023-08-30T06:35:15;7.95;;;4.25;;
54853;SDS011;40747;49.480;8.658;2023-08-30T06:37:40;5.78;;;4.47;;
54853;SDS011;40747;49.480;8.658;2023-08-30T06:40:06;3.85;;;3.22;;
54853;SDS011;40747;49.480;8.658;2023-08-30T06:42:32;5.22;;;4.05;;
54853;SDS011;40747;49.480;8.658;2023-08-30T06:44:57;4.50;;;3.92;;
54853;SDS011;40747;49.480;8.658;2023-08-30T06:47:22;4.47;;;3.53;;
54853;SDS011;40747;49.480;8.658;2023-08-30T06:49:48;8.27;;;3.58;;
54853;SDS011;40747;49.480;8.658;2023-08-30T06:52:13;7.55;;;4.15;;
54853;SDS011;40747;49.480;8.658;2023-08-30T06:54:39;4.80;;;3.60;;
54853;SDS011;40747;49.480;8.658;2023-08-30T06:57:05;5.78;;;4.10;;
54853;SDS011;40747;49.480;8.658;2023-08-30T06:59:31;4.55;;;3.60;;
54853;SDS011;40747;49.480;8.658;2023-08-30T07:01:57;5.03;;;3.65;;
54853;SDS011;40747;49.480;8.658;2023-08-30T07:04:22;7.50;;;3.83;;
54853;SDS011;40747;49.480;8.658;2023-08-30T07:06:48;5.10;;;3.58;;
54853;SDS011;40747;49.480;8.658;2023-08-30T07:09:13;4.32;;;3.22;;
54853;SDS011;40747;49.480;8.658;2023-08-30T07:11:39;6.13;;;3.63;;
54853;SDS011;40747;49.480;8.658;2023-08-30T07:14:04;5.63;;;4.50;;
54853;SDS011;40747;49.480;8.658;2023-08-30T07:16:30;4.85;;;3.92;;
54853;SDS011;40747;49.480;8.658;2023-08-30T07:18:56;4.55;;;3.67;;
54853;SDS011;40747;49.480;8.658;2023-08-30T07:21:22;7.78;;;4.03;;
54853;SDS011;40747;49.480;8.658;2023-08-30T07:23:48;4.68;;;3.72;;
54853;SDS011;40747;49.480;8.658;2023-08-30T07:26:13;7.22;;;4.80;;
54853;SDS011;40747;49.480;8.658;2023-08-30T07:28:38;5.80;;;3.70;;
54853;SDS011;40747;49.480;8.658;2023-08-30T07:31:04;5.93;;;3.85;;
54853;SDS011;40747;49.480;8.658;2023-08-30T07:33:31;6.25;;;4.35;;
54853;SDS011;40747;49.480;8.658;2023-08-30T07:35:56;5.22;;;3.78;;
54853;SDS011;40747;49.480;8.658;2023-08-30T07:38:21;4.60;;;3.75;;
54853;SDS011;40747;49.480;8.658;2023-08-30T07:40:47;5.72;;;4.60;;
54853;SDS011;40747;49.480;8.658;2023-08-30T07:43:12;8.50;;;4.65;;
54853;SDS011;40747;49.480;8.658;2023-08-30T07:45:38;6.30;;;4.93;;
54853;SDS011;40747;49.480;8.658;2023-08-30T07:48:03;5.72;;;4.10;;
54853;SDS011;40747;49.480;8.658;2023-08-30T07:50:28;5.93;;;4.32;;
54853;SDS011;40747;49.480;8.658;2023-08-30T07:52:54;5.15;;;4.20;;
54853;SDS011;40747;49.480;8.658;2023-08-30T07:55:19;6.60;;;4.35;;
54853;SDS011;40747;49.480;8.658;2023-08-30T07:57:44;5.88;;;4.03;;
54853;SDS011;40747;49.480;8.658;2023-08-30T08:00:10;5.22;;;4.40;;
54853;SDS011;40747;49.480;8.658;2023-08-30T08:02:35;11.13;;;5.07;;
54853;SDS011;40747;49.480;8.658;2023-08-30T08:05:01;6.22;;;4.35;;
54853;SDS011;40747;49.480;8.658;2023-08-30T08:07:27;8.93;;;4.38;;
54853;SDS011;40747;49.480;8.658;2023-08-30T08:09:52;6.25;;;4.22;;
54853;SDS011;40747;49.480;8.658;2023-08-30T08:12:17;5.68;;;4.47;;
54853;SDS011;40747;49.480;8.658;2023-08-30T08:14:43;8.20;;;4.40;;
54853;SDS011;40747;49.480;8.658;2023-08-30T08:17:08;5.63;;;3.95;;
54853;SDS011;40747;49.480;8.658;2023-08-30T08:19:33;6.00;;;4.40;;
54853;SDS011;40747;49.480;8.658;2023-08-30T08:22:03;7.30;;;4.30;;
54853;SDS011;40747;49.480;8.658;2023-08-30T08:24:29;7.35;;;4.70;;
54853;SDS011;40747;49.480;8.658;2023-08-30T08:26:54;5.70;;;4.15;;
54853;SDS011;40747;49.480;8.658;2023-08-30T08:29:19;5.35;;;4.53;;
54853;SDS011;40747;49.480;8.658;2023-08-30T08:31:45;8.65;;;5.40;;
54853;SDS011;40747;49.480;8.658;2023-08-30T08:34:11;7.57;;;4.47;;
54853;SDS011;40747;49.480;8.658;2023-08-30T08:36:41;4.30;;;3.90;;
54853;SDS011;40747;49.480;8.658;2023-08-30T08:39:07;5.45;;;4.47;;
54853;SDS011;40747;49.480;8.658;2023-08-30T08:41:42;6.75;;;4.35;;
54853;SDS011;40747;49.480;8.658;2023-08-30T08:46:35;7.18;;;4.00;;
54853;SDS011;40747;49.480;8.658;2023-08-30T08:49:08;4.72;;;3.22;;
54853;SDS011;40747;49.480;8.658;2023-08-30T08:51:37;5.45;;;3.67;;
54853;SDS011;40747;49.480;8.658;2023-08-30T08:54:04;5.45;;;3.88;;
54853;SDS011;40747;49.480;8.658;2023-08-30T08:56:30;4.75;;;3.67;;
54853;SDS011;40747;49.480;8.658;2023-08-30T08:58:57;4.32;;;3.47;;
54853;SDS011;40747;49.480;8.658;2023-08-30T09:01:23;5.20;;;3.50;;
54853;SDS011;40747;49.480;8.658;2023-08-30T09:03:50;4.50;;;3.60;;
54853;SDS011;40747;49.480;8.658;2023-08-30T09:06:15;3.92;;;3.25;;
54853;SDS011;40747;49.480;8.658;2023-08-30T09:08:41;5.68;;;3.55;;
54853;SDS011;40747;49.480;8.658;2023-08-30T09:11:06;6.82;;;4.05;;
54853;SDS011;40747;49.480;8.658;2023-08-30T09:13:32;4.40;;;3.60;;
54853;SDS011;40747;49.480;8.658;2023-08-30T09:15:57;7.35;;;3.72;;
54853;SDS011;40747;49.480;8.658;2023-08-30T09:18:23;5.25;;;3.80;;
54853;SDS011;40747;49.480;8.658;2023-08-30T09:20:52;5.07;;;3.42;;
54853;SDS011;40747;49.480;8.658;2023-08-30T09:23:21;3.92;;;3.53;;
54853;SDS011;40747;49.480;8.658;2023-08-30T09:25:53;5.35;;;4.03;;
54853;SDS011;40747;49.480;8.658;2023-08-30T09:28:19;6.32;;;3.90;;
54853;SDS011;40747;49.480;8.658;2023-08-30T09:30:51;5.30;;;3.65;;
54853;SDS011;40747;49.480;8.658;2023-08-30T09:33:20;7.53;;;4.55;;
54853;SDS011;40747;49.480;8.658;2023-08-30T09:35:46;5.07;;;3.17;;
54853;SDS011;40747;49.480;8.658;2023-08-30T09:38:18;4.97;;;3.83;;
54853;SDS011;40747;49.480;8.658;2023-08-30T09:40:44;6.15;;;3.70;;
54853;SDS011;40747;49.480;8.658;2023-08-30T09:43:10;4.20;;;3.22;;
54853;SDS011;40747;49.480;8.658;2023-08-30T09:45:36;5.50;;;3.88;;
54853;SDS011;40747;49.480;8.658;2023-08-30T09:48:02;4.38;;;3.10;;
54853;SDS011;40747;49.480;8.658;2023-08-30T09:50:28;5.20;;;3.40;;
54853;SDS011;40747;49.480;8.658;2023-08-30T09:52:58;7.95;;;3.00;;
54853;SDS011;40747;49.480;8.658;2023-08-30T09:55:25;3.90;;;2.85;;
54853;SDS011;40747;49.480;8.658;2023-08-30T09:57:50;2.88;;;2.38;;
54853;SDS011;40747;49.480;8.658;2023-08-30T10:00:16;4.10;;;2.67;;
54853;SDS011;40747;49.480;8.658;2023-08-30T10:02:42;4.93;;;2.53;;
54853;SDS011;40747;49.480;8.658;2023-08-30T10:05:12;3.05;;;2.53;;
54853;SDS011;40747;49.480;8.658;2023-08-30T10:07:38;3.13;;;2.17;;
54853;SDS011;40747;49.480;8.658;2023-08-30T10:10:04;3.47;;;2.38;;
54853;SDS011;40747;49.480;8.658;2023-08-30T10:12:33;4.43;;;2.55;;
54853;SDS011;40747;49.480;8.658;2023-08-30T10:14:59;3.03;;;2.00;;
54853;SDS011;40747;49.480;8.658;2023-08-30T10:17:28;3.40;;;2.60;;
54853;SDS011;40747;49.480;8.658;2023-08-30T10:19:57;3.93;;;2.30;;
54853;SDS011;40747;49.480;8.658;2023-08-30T10:22:26;2.60;;;1.83;;
54853;SDS011;40747;49.480;8.658;2023-08-30T10:24:56;2.95;;;1.77;;
54853;SDS011;40747;49.480;8.658;2023-08-30T10:27:24;1.48;;;1.38;;
54853;SDS011;40747;49.480;8.658;2023-08-30T10:29:51;4.88;;;2.03;;
54853;SDS011;40747;49.480;8.658;2023-08-30T10:32:21;1.60;;;1.35;;
54853;SDS011;40747;49.480;8.658;2023-08-30T10:34:47;2.85;;;2.28;;
54853;SDS011;40747;49.480;8.658;2023-08-30T10:37:14;2.53;;;1.63;;
54853;SDS011;40747;49.480;8.658;2023-08-30T10:39:40;4.63;;;2.05;;
54853;SDS011;40747;49.480;8.658;2023-08-30T10:42:11;1.48;;;1.15;;
54853;SDS011;40747;49.480;8.658;2023-08-30T10:44:50;7.40;;;2.13;;
54853;SDS011;40747;49.480;8.658;2023-08-30T10:47:22;2.38;;;1.70;;
54853;SDS011;40747;49.480;8.658;2023-08-30T10:49:49;3.00;;;1.65;;
54853;SDS011;40747;49.480;8.658;2023-08-30T10:52:14;2.15;;;1.95;;
54853;SDS011;40747;49.480;8.658;2023-08-30T10:54:39;1.65;;;1.52;;
54853;SDS011;40747;49.480;8.658;2023-08-30T10:57:05;2.63;;;1.88;;
54853;SDS011;40747;49.480;8.658;2023-08-30T10:59:37;1.60;;;1.50;;
54853;SDS011;40747;49.480;8.658;2023-08-30T11:02:02;2.67;;;2.00;;
54853;SDS011;40747;49.480;8.658;2023-08-30T11:04:28;2.05;;;1.52;;
54853;SDS011;40747;49.480;8.658;2023-08-30T11:08:25;2.78;;;1.60;;
54853;SDS011;40747;49.480;8.658;2023-08-30T11:10:59;1.95;;;1.40;;
54853;SDS011;40747;49.480;8.658;2023-08-30T11:13:29;1.65;;;1.40;;
54853;SDS011;40747;49.480;8.658;2023-08-30T11:15:59;1.58;;;1.40;;
54853;SDS011;40747;49.480;8.658;2023-08-30T11:18:25;1.95;;;1.52;;
54853;SDS011;40747;49.480;8.658;2023-08-30T11:21:00;1.52;;;1.38;;
54853;SDS011;40747;49.480;8.658;2023-08-30T11:23:26;2.33;;;1.40;;
54853;SDS011;40747;49.480;8.658;2023-08-30T11:25:52;2.25;;;1.40;;
54853;SDS011;40747;49.480;8.658;2023-08-30T11:28:21;2.05;;;1.60;;
54853;SDS011;40747;49.480;8.658;2023-08-30T11:30:48;1.70;;;1.40;;
54853;SDS011;40747;49.480;8.658;2023-08-30T11:33:16;1.73;;;1.20;;
54853;SDS011;40747;49.480;8.658;2023-08-30T11:35:42;1.92;;;1.70;;
54853;SDS011;40747;49.480;8.658;2023-08-30T11:38:08;1.88;;;1.50;;
54853;SDS011;40747;49.480;8.658;2023-08-30T11:40:34;2.67;;;1.30;;
54853;SDS011;40747;49.480;8.658;2023-08-30T11:43:00;2.15;;;1.48;;
54853;SDS011;40747;49.480;8.658;2023-08-30T11:45:27;1.58;;;1.25;;
54853;SDS011;40747;49.480;8.658;2023-08-30T11:47:53;2.72;;;1.38;;
54853;SDS011;40747;49.480;8.658;2023-08-30T11:50:18;1.92;;;1.17;;
54853;SDS011;40747;49.480;8.658;2023-08-30T11:52:45;2.78;;;1.40;;
54853;SDS011;40747;49.480;8.658;2023-08-30T11:55:11;1.70;;;1.25;;
54853;SDS011;40747;49.480;8.658;2023-08-30T11:57:37;2.55;;;1.27;;
54853;SDS011;40747;49.480;8.658;2023-08-30T12:00:07;2.20;;;1.40;;
54853;SDS011;40747;49.480;8.658;2023-08-30T12:02:36;3.53;;;1.50;;
54853;SDS011;40747;49.480;8.658;2023-08-30T12:05:02;4.93;;;1.67;;
54853;SDS011;40747;49.480;8.658;2023-08-30T12:07:28;1.88;;;1.70;;
54853;SDS011;40747;49.480;8.658;2023-08-30T12:10:08;2.55;;;1.50;;
54853;SDS011;40747;49.480;8.658;2023-08-30T12:12:36;2.15;;;1.27;;
54853;SDS011;40747;49.480;8.658;2023-08-30T12:15:11;1.67;;;1.35;;
54853;SDS011;40747;49.480;8.658;2023-08-30T12:17:37;3.88;;;1.52;;
54853;SDS011;40747;49.480;8.658;2023-08-30T12:20:03;1.75;;;1.23;;
54853;SDS011;40747;49.480;8.658;2023-08-30T12:22:38;1.42;;;1.33;;
54853;SDS011;40747;49.480;8.658;2023-08-30T12:25:04;3.85;;;1.50;;
54853;SDS011;40747;49.480;8.658;2023-08-30T12:27:40;3.47;;;1.40;;
54853;SDS011;40747;49.480;8.658;2023-08-30T12:30:06;1.50;;;1.38;;
54853;SDS011;40747;49.480;8.658;2023-08-30T12:32:32;1.48;;;1.30;;
54853;SDS011;40747;49.480;8.658;2023-08-30T12:34:57;1.50;;;1.30;;
54853;SDS011;40747;49.480;8.658;2023-08-30T12:37:23;2.03;;;1.30;;
54853;SDS011;40747;49.480;8.658;2023-08-30T12:39:49;1.70;;;1.50;;
54853;SDS011;40747;49.480;8.658;2023-08-30T12:42:14;2.85;;;1.58;;
54853;SDS011;40747;49.480;8.658;2023-08-30T12:44:39;2.38;;;1.50;;
54853;SDS011;40747;49.480;8.658;2023-08-30T12:47:05;3.33;;;1.33;;
54853;SDS011;40747;49.480;8.658;2023-08-30T12:49:30;1.60;;;1.10;;
54853;SDS011;40747;49.480;8.658;2023-08-30T12:51:55;2.35;;;1.20;;
54853;SDS011;40747;49.480;8.658;2023-08-30T12:54:20;2.30;;;1.50;;
54853;SDS011;40747;49.480;8.658;2023-08-30T12:56:46;2.20;;;1.40;;
54853;SDS011;40747;49.480;8.658;2023-08-30T12:59:11;1.67;;;1.30;;
54853;SDS011;40747;49.480;8.658;2023-08-30T13:01:36;2.30;;;1.38;;
54853;SDS011;40747;49.480;8.658;2023-08-30T13:04:02;1.83;;;1.42;;
54853;SDS011;40747;49.480;8.658;2023-08-30T13:06:28;2.47;;;2.20;;
54853;SDS011;40747;49.480;8.658;2023-08-30T13:08:53;1.48;;;1.20;;
54853;SDS011;40747;49.480;8.658;2023-08-30T13:11:19;1.45;;;1.23;;
54853;SDS011;40747;49.480;8.658;2023-08-30T13:13:44;2.25;;;1.30;;
54853;SDS011;40747;49.480;8.658;2023-08-30T13:16:09;2.45;;;0.95;;
54853;SDS011;40747;49.480;8.658;2023-08-30T13:18:35;1.17;;;1.08;;
54853;SDS011;40747;49.480;8.658;2023-08-30T13:21:00;3.05;;;1.33;;
54853;SDS011;40747;49.480;8.658;2023-08-30T13:23:25;1.73;;;1.17;;
54853;SDS011;40747;49.480;8.658;2023-08-30T13:25:50;2.00;;;1.10;;
54853;SDS011;40747;49.480;8.658;2023-08-30T13:28:16;1.80;;;1.20;;
54853;SDS011;40747;49.480;8.658;2023-08-30T13:30:44;2.70;;;1.20;;
54853;SDS011;40747;49.480;8.658;2023-08-30T13:33:10;2.10;;;1.00;;
54853;SDS011;40747;49.480;8.658;2023-08-30T13:35:38;1.20;;;1.08;;
54853;SDS011;40747;49.480;8.658;2023-08-30T13:38:04;1.45;;;1.02;;
54853;SDS011;40747;49.480;8.658;2023-08-30T13:40:29;1.75;;;1.08;;
54853;SDS011;40747;49.480;8.658;2023-08-30T13:42:54;3.28;;;1.38;;
54853;SDS011;40747;49.480;8.658;2023-08-30T13:45:20;1.52;;;1.20;;
54853;SDS011;40747;49.480;8.658;2023-08-30T13:47:45;1.73;;;1.10;;
54853;SDS011;40747;49.480;8.658;2023-08-30T13:50:11;1.77;;;1.05;;
54853;SDS011;40747;49.480;8.658;2023-08-30T13:52:37;2.33;;;1.70;;
54853;SDS011;40747;49.480;8.658;2023-08-30T13:55:02;0.85;;;0.77;;
54853;SDS011;40747;49.480;8.658;2023-08-30T13:57:28;1.80;;;0.90;;
54853;SDS011;40747;49.480;8.658;2023-08-30T13:59:53;2.08;;;0.80;;
54853;SDS011;40747;49.480;8.658;2023-08-30T14:02:18;1.83;;;0.88;;
54853;SDS011;40747;49.480;8.658;2023-08-30T14:04:44;1.50;;;1.00;;
54853;SDS011;40747;49.480;8.658;2023-08-30T14:07:09;1.05;;;0.88;;
54853;SDS011;40747;49.480;8.658;2023-08-30T14:09:36;1.73;;;0.95;;
54853;SDS011;40747;49.480;8.658;2023-08-30T14:12:02;2.40;;;1.38;;
54853;SDS011;40747;49.480;8.658;2023-08-30T14:14:28;1.50;;;0.88;;
54853;SDS011;40747;49.480;8.658;2023-08-30T14:16:54;1.20;;;1.00;;
54853;SDS011;40747;49.480;8.658;2023-08-30T14:19:19;1.38;;;0.80;;
54853;SDS011;40747;49.480;8.658;2023-08-30T14:21:45;2.55;;;0.82;;
54853;SDS011;40747;49.480;8.658;2023-08-30T14:24:10;2.67;;;0.98;;
54853;SDS011;40747;49.480;8.658;2023-08-30T14:26:36;7.00;;;1.33;;
54853;SDS011;40747;49.480;8.658;2023-08-30T14:29:01;3.70;;;1.23;;
54853;SDS011;40747;49.480;8.658;2023-08-30T14:31:27;4.85;;;1.52;;
54853;SDS011;40747;49.480;8.658;2023-08-30T14:33:54;2.97;;;1.70;;
54853;SDS011;40747;49.480;8.658;2023-08-30T14:36:21;3.50;;;1.10;;
54853;SDS011;40747;49.480;8.658;2023-08-30T14:38:46;4.97;;;1.02;;
54853;SDS011;40747;49.480;8.658;2023-08-30T14:41:11;6.25;;;1.33;;
54853;SDS011;40747;49.480;8.658;2023-08-30T14:43:37;17.80;;;2.17;;
54853;SDS011;40747;49.480;8.658;2023-08-30T14:46:04;25.08;;;2.38;;
54853;SDS011;40747;49.480;8.658;2023-08-30T14:48:30;3.97;;;1.00;;
54853;SDS011;40747;49.480;8.658;2023-08-30T14:50:57;19.35;;;1.80;;
54853;SDS011;40747;49.480;8.658;2023-08-30T14:53:23;1.83;;;0.88;;